Time;durP1;ratioP1;P1;durP2;ratioP2;P2;SDS_P1;SDS_P2;PMS_P1;PMS_P2;Temp;Humidity;BMP_temperature;BMP_pressure;BME280_temperature;BME280_humidity;BME280_pressure;Samples;Min_cycle;Max_cycle;Signal;HPM_P1;HPM_P2
2022/11/28 00:02:02;;;;;;;1.20;0.93;;;;;;;;;;1731191;80;21057;-51
2022/11/28 00:04:29;;;;;;;1.77;0.90;;;;;;;;;;1734045;80;21792;-52
2022/11/28 00:06:55;;;;;;;0.93;0.70;;;;;;;;;;1733740;80;21074;-51
2022/11/28 00:09:21;;;;;;;1.10;0.90;;;;;;;;;;1737361;80;21148;-51
2022/11/28 00:11:49;;;;;;;1.53;1.10;;;;;;;;;;1737400;80;21033;-51
2022/11/28 00:14:17;;;;;;;2.23;1.33;;;;;;;;;;1737607;80;21127;-52
2022/11/28 00:16:44;;;;;;;1.53;1.10;;;;;;;;;;1738122;80;21776;-51
2022/11/28 00:19:10;;;;;;;1.37;0.97;;;;;;;;;;1729681;80;21602;-52
2022/11/28 00:21:37;;;;;;;1.50;0.80;;;;;;;;;;1728937;80;22568;-52
2022/11/28 00:24:05;;;;;;;1.50;1.10;;;;;;;;;;1727285;80;21075;-52
2022/11/28 00:26:33;;;;;;;2.63;1.00;;;;;;;;;;1733448;80;21054;-52
2022/11/28 00:29:00;;;;;;;1.30;0.80;;;;;;;;;;1733884;80;22580;-52
2022/11/28 00:31:28;;;;;;;1.40;0.93;;;;;;;;;;1728352;80;21165;-52
2022/11/28 00:33:55;;;;;;;1.10;0.90;;;;;;;;;;1732534;80;21133;-51
2022/11/28 00:36:21;;;;;;;1.40;1.10;;;;;;;;;;1735484;80;21114;-51
2022/11/28 00:38:48;;;;;;;1.57;1.00;;;;;;;;;;1731047;80;21041;-52
2022/11/28 00:41:17;;;;;;;2.57;1.00;;;;;;;;;;1724757;80;22164;-52
2022/11/28 00:43:45;;;;;;;2.93;1.03;;;;;;;;;;1731932;80;21078;-51
2022/11/28 00:46:12;;;;;;;2.00;1.20;;;;;;;;;;1731736;80;21023;-52
2022/11/28 00:50:52;;;;;;;2.40;1.50;;;;;;;;;;1760383;78;27391;-53
2022/11/28 00:53:18;;;;;;;3.13;2.00;;;;;;;;;;1749427;80;21074;-53
2022/11/28 00:55:45;;;;;;;1.80;1.30;;;;;;;;;;1749070;80;21844;-53
2022/11/28 00:58:11;;;;;;;2.70;1.70;;;;;;;;;;1749563;81;21068;-53
2022/11/28 01:00:37;;;;;;;2.00;1.20;;;;;;;;;;1743385;81;21097;-53
2022/11/28 01:03:04;;;;;;;3.93;1.30;;;;;;;;;;1744786;80;21108;-53
2022/11/28 01:05:30;;;;;;;1.40;1.00;;;;;;;;;;1746064;80;21558;-53
2022/11/28 01:07:56;;;;;;;1.90;1.07;;;;;;;;;;1743628;80;21846;-53
2022/11/28 01:10:22;;;;;;;2.27;1.03;;;;;;;;;;1708344;82;21098;-53
2022/11/28 01:12:48;;;;;;;2.17;1.23;;;;;;;;;;1698392;83;21110;-53
2022/11/28 01:15:15;;;;;;;1.50;1.10;;;;;;;;;;1695265;83;21535;-53
2022/11/28 01:17:41;;;;;;;1.80;1.23;;;;;;;;;;1664416;84;21094;-53
2022/11/28 01:20:08;;;;;;;2.30;1.27;;;;;;;;;;1697901;83;21958;-53
2022/11/28 01:22:34;;;;;;;1.47;1.00;;;;;;;;;;1676317;84;21042;-53
2022/11/28 01:25:00;;;;;;;2.33;1.27;;;;;;;;;;1673672;84;21061;-53
2022/11/28 01:27:26;;;;;;;1.60;1.00;;;;;;;;;;1679770;84;21388;-53
2022/11/28 01:29:53;;;;;;;1.93;1.00;;;;;;;;;;1704906;83;22229;-53
2022/11/28 01:32:19;;;;;;;2.73;1.10;;;;;;;;;;1706014;83;21942;-53
2022/11/28 01:34:45;;;;;;;2.40;1.20;;;;;;;;;;1705999;83;21093;-53
2022/11/28 01:37:11;;;;;;;2.17;1.00;;;;;;;;;;1710816;83;21037;-53
2022/11/28 01:39:37;;;;;;;5.10;1.73;;;;;;;;;;1673991;84;21617;-53
2022/11/28 01:42:03;;;;;;;1.83;1.00;;;;;;;;;;1677407;84;21057;-53
2022/11/28 01:44:33;;;;;;;2.77;1.00;;;;;;;;;;1711136;82;21962;-53
2022/11/28 01:46:59;;;;;;;1.50;0.90;;;;;;;;;;1698964;83;21085;-53
2022/11/28 01:49:34;;;;;;;2.40;1.07;;;;;;;;;;1664540;84;21125;-54
2022/11/28 01:52:05;;;;;;;1.27;1.05;;;;;;;;;;1698857;83;21074;-53
2022/11/28 01:54:31;;;;;;;1.60;1.30;;;;;;;;;;1687935;83;21070;-53
2022/11/28 01:56:59;;;;;;;2.20;1.10;;;;;;;;;;1695045;83;23296;-53
2022/11/28 01:59:27;;;;;;;1.83;1.00;;;;;;;;;;1699676;83;21054;-53
2022/11/28 02:01:53;;;;;;;1.80;1.20;;;;;;;;;;1700320;82;21084;-53
2022/11/28 02:04:19;;;;;;;1.70;1.20;;;;;;;;;;1697136;83;21023;-53
2022/11/28 02:06:46;;;;;;;2.77;1.03;;;;;;;;;;1687381;83;21057;-53
2022/11/28 02:09:13;;;;;;;1.70;1.10;;;;;;;;;;1697564;83;21835;-53
2022/11/28 02:11:49;;;;;;;2.00;1.00;;;;;;;;;;1697774;83;21051;-53
2022/11/28 02:14:25;;;;;;;2.37;1.23;;;;;;;;;;1699376;83;21085;-53
2022/11/28 02:16:58;;;;;;;1.50;0.97;;;;;;;;;;1699230;83;21078;-53
2022/11/28 02:19:31;;;;;;;1.10;0.90;;;;;;;;;;1701346;83;21094;-54
2022/11/28 02:22:10;;;;;;;2.33;1.77;;;;;;;;;;1695460;83;21835;-53
2022/11/28 02:24:55;;;;;;;1.70;1.20;;;;;;;;;;1693347;83;21047;-53
2022/11/28 02:27:40;;;;;;;2.42;1.10;;;;;;;;;;1697782;83;21049;-53
2022/11/28 02:30:09;;;;;;;2.08;1.10;;;;;;;;;;1701593;83;23616;-53
2022/11/28 02:32:49;;;;;;;1.70;1.13;;;;;;;;;;1697708;83;21109;-53
2022/11/28 02:35:21;;;;;;;2.57;1.50;;;;;;;;;;1698978;83;21840;-53
2022/11/28 02:38:08;;;;;;;2.13;1.10;;;;;;;;;;1695804;83;21102;-53
2022/11/28 02:40:41;;;;;;;2.40;1.03;;;;;;;;;;1695774;83;21066;-53
2022/11/28 02:43:23;;;;;;;2.10;1.10;;;;;;;;;;1697709;83;21622;-53
2022/11/28 02:46:16;;;;;;;1.10;1.00;;;;;;;;;;1665224;83;21021;-53
2022/11/28 02:48:48;;;;;;;2.47;1.10;;;;;;;;;;1696728;83;21866;-52
2022/11/28 02:51:21;;;;;;;2.73;1.10;;;;;;;;;;1719353;81;21066;-54
2022/11/28 02:53:47;;;;;;;1.50;1.20;;;;;;;;;;1726071;81;21078;-54
2022/11/28 02:56:14;;;;;;;3.00;1.80;;;;;;;;;;1734058;81;21077;-53
2022/11/28 02:58:41;;;;;;;5.73;1.77;;;;;;;;;;1731727;81;21623;-53
2022/11/28 03:01:17;;;;;;;3.63;2.00;;;;;;;;;;1727243;81;21898;-53
2022/11/28 03:03:50;;;;;;;4.03;1.70;;;;;;;;;;1719703;81;21539;-53
2022/11/28 03:06:23;;;;;;;7.67;3.43;;;;;;;;;;1723780;81;21054;-53
2022/11/28 03:08:56;;;;;;;5.80;2.60;;;;;;;;;;1731230;81;21026;-52
2022/11/28 03:11:41;;;;;;;4.43;2.80;;;;;;;;;;1701719;81;21031;-52
2022/11/28 03:14:28;;;;;;;5.97;1.83;;;;;;;;;;1728770;81;23231;-52
2022/11/28 03:17:07;;;;;;;3.23;1.70;;;;;;;;;;1732979;81;21147;-53
2022/11/28 03:19:35;;;;;;;1.70;1.50;;;;;;;;;;1726657;81;21043;-52
2022/11/28 03:22:20;;;;;;;3.90;1.43;;;;;;;;;;1724509;81;21489;-52
2022/11/28 03:25:01;;;;;;;2.83;1.30;;;;;;;;;;1713068;81;21580;-52
2022/11/28 03:27:42;;;;;;;4.13;1.33;;;;;;;;;;1732208;81;21835;-52
2022/11/28 03:30:21;;;;;;;1.73;1.27;;;;;;;;;;1727356;81;21034;-52
2022/11/28 03:32:48;;;;;;;2.40;1.40;;;;;;;;;;1727888;81;21073;-53
2022/11/28 03:35:19;;;;;;;1.97;1.63;;;;;;;;;;1732774;81;21096;-53
2022/11/28 03:37:52;;;;;;;2.53;1.87;;;;;;;;;;1731503;81;21543;-52
2022/11/28 03:40:21;;;;;;;3.40;1.50;;;;;;;;;;1730591;81;21845;-53
2022/11/28 03:42:51;;;;;;;4.33;1.53;;;;;;;;;;1724749;81;21042;-52
2022/11/28 03:45:21;;;;;;;2.73;1.97;;;;;;;;;;1721850;81;21097;-53
2022/11/28 03:47:51;;;;;;;1.87;1.47;;;;;;;;;;1727120;81;21455;-52
2022/11/28 03:50:20;;;;;;;2.90;1.37;;;;;;;;;;1726610;81;21526;-53
2022/11/28 03:52:49;;;;;;;2.90;1.70;;;;;;;;;;1735374;81;21454;-52
2022/11/28 03:55:24;;;;;;;2.83;2.00;;;;;;;;;;1732524;81;21219;-52
2022/11/28 03:58:01;;;;;;;3.80;1.53;;;;;;;;;;1734197;81;21535;-52
2022/11/28 04:00:27;;;;;;;1.50;1.30;;;;;;;;;;1733086;81;21634;-52
2022/11/28 04:03:12;;;;;;;2.43;1.70;;;;;;;;;;1735033;81;21065;-52
2022/11/28 04:06:01;;;;;;;2.67;1.20;;;;;;;;;;1734402;81;22575;-52
2022/11/28 04:08:30;;;;;;;2.20;1.50;;;;;;;;;;1727834;81;21098;-52
2022/11/28 04:11:28;;;;;;;2.17;1.70;;;;;;;;;;1729089;81;21077;-52
2022/11/28 04:14:01;;;;;;;3.90;1.70;;;;;;;;;;1732923;81;21104;-52
2022/11/28 04:16:40;;;;;;;3.40;1.60;;;;;;;;;;1725467;81;21023;-53
2022/11/28 04:19:10;;;;;;;1.70;1.50;;;;;;;;;;1728100;81;22989;-53
2022/11/28 04:22:03;;;;;;;1.50;1.20;;;;;;;;;;1731145;81;21047;-53
2022/11/28 04:24:32;;;;;;;1.80;1.20;;;;;;;;;;1725978;81;21057;-52
2022/11/28 04:27:01;;;;;;;1.60;1.40;;;;;;;;;;1728875;81;22356;-52
2022/11/28 04:29:29;;;;;;;3.43;1.30;;;;;;;;;;1727702;81;21107;-52
2022/11/28 04:31:55;;;;;;;1.80;1.20;;;;;;;;;;1723526;81;22505;-52
2022/11/28 04:34:21;;;;;;;2.60;1.67;;;;;;;;;;1727358;81;21685;-53
2022/11/28 04:36:47;;;;;;;2.40;1.20;;;;;;;;;;1727845;81;21033;-52
2022/11/28 04:39:17;;;;;;;2.00;1.10;;;;;;;;;;1726102;81;21042;-52
2022/11/28 04:42:10;;;;;;;2.13;0.93;;;;;;;;;;1734551;81;21333;-53
2022/11/28 04:45:02;;;;;;;1.57;1.40;;;;;;;;;;1721982;81;22939;-53
2022/11/28 04:47:28;;;;;;;3.27;1.70;;;;;;;;;;1686602;81;21066;-53
2022/11/28 04:49:54;;;;;;;2.57;1.53;;;;;;;;;;1723230;81;21841;-52
2022/11/28 04:52:30;;;;;;;3.70;1.97;;;;;;;;;;1720749;81;21090;-53
2022/11/28 04:55:03;;;;;;;3.83;2.27;;;;;;;;;;1718804;82;21592;-52
2022/11/28 04:57:38;;;;;;;5.87;3.47;;;;;;;;;;1716727;81;21900;-53
2022/11/28 05:00:07;;;;;;;8.15;3.05;;;;;;;;;;1724623;82;21512;-52
2022/11/28 05:02:34;;;;;;;3.77;2.23;;;;;;;;;;1721760;81;21050;-53
2022/11/28 05:05:00;;;;;;;2.27;1.77;;;;;;;;;;1723939;81;21291;-53
2022/11/28 05:07:27;;;;;;;2.13;1.93;;;;;;;;;;1720919;81;21057;-53
2022/11/28 05:09:54;;;;;;;3.87;2.03;;;;;;;;;;1715684;82;21982;-52
2022/11/28 05:12:20;;;;;;;3.73;2.00;;;;;;;;;;1717284;81;21554;-53
2022/11/28 05:14:46;;;;;;;2.10;1.67;;;;;;;;;;1725934;81;21054;-52
2022/11/28 05:17:12;;;;;;;3.30;2.10;;;;;;;;;;1717930;82;21057;-53
2022/11/28 05:19:39;;;;;;;4.43;3.13;;;;;;;;;;1721270;81;21070;-52
2022/11/28 05:22:05;;;;;;;5.50;2.60;;;;;;;;;;1718683;82;21852;-53
2022/11/28 05:24:31;;;;;;;4.87;3.27;;;;;;;;;;1721857;81;21070;-53
2022/11/28 05:26:57;;;;;;;4.77;3.07;;;;;;;;;;1725491;82;21083;-52
2022/11/28 05:29:24;;;;;;;3.43;2.33;;;;;;;;;;1722673;81;21626;-53
2022/11/28 05:31:51;;;;;;;4.43;4.03;;;;;;;;;;1717097;82;21082;-53
2022/11/28 05:34:17;;;;;;;4.40;2.67;;;;;;;;;;1718110;82;21824;-53
2022/11/28 05:36:43;;;;;;;4.90;4.30;;;;;;;;;;1718363;81;21476;-52
2022/11/28 05:39:09;;;;;;;4.93;4.10;;;;;;;;;;1721365;81;21065;-53
2022/11/28 05:41:35;;;;;;;2.90;2.13;;;;;;;;;;1726246;81;21057;-53
2022/11/28 05:44:01;;;;;;;3.67;2.50;;;;;;;;;;1716435;81;21835;-53
2022/11/28 05:46:28;;;;;;;4.63;2.20;;;;;;;;;;1720428;81;21963;-53
2022/11/28 05:48:54;;;;;;;2.47;1.50;;;;;;;;;;1721765;81;21062;-53
2022/11/28 05:51:20;;;;;;;2.83;1.40;;;;;;;;;;1704424;82;21073;-52
2022/11/28 05:53:47;;;;;;;3.37;2.00;;;;;;;;;;1689133;83;21577;-53
2022/11/28 05:56:17;;;;;;;1.50;1.33;;;;;;;;;;1695767;83;21118;-52
2022/11/28 05:58:43;;;;;;;1.63;1.20;;;;;;;;;;1691641;83;21799;-53
2022/11/28 06:01:18;;;;;;;3.17;1.67;;;;;;;;;;1690764;82;21093;-52
2022/11/28 06:03:45;;;;;;;1.70;1.60;;;;;;;;;;1689471;82;21910;-53
2022/11/28 06:07:51;;;;;;;1.90;1.63;;;;;;;;;;1780278;77;27348;-51
2022/11/28 06:13:07;;;;;;;2.50;1.63;;;;;;;;;;1728480;78;72635;-77
2022/11/28 06:15:33;;;;;;;2.70;1.83;;;;;;;;;;1623927;86;21685;-78
2022/11/28 06:17:59;;;;;;;2.63;1.57;;;;;;;;;;1630208;86;21836;-77
2022/11/28 06:20:25;;;;;;;1.90;1.80;;;;;;;;;;1629060;86;21052;-78
2022/11/28 06:22:51;;;;;;;2.23;2.03;;;;;;;;;;1628190;86;21088;-78
2022/11/28 06:25:18;;;;;;;2.57;1.43;;;;;;;;;;1621811;86;21466;-78
2022/11/28 06:27:44;;;;;;;3.77;2.33;;;;;;;;;;1618675;86;21118;-75
2022/11/28 06:30:10;;;;;;;3.30;1.60;;;;;;;;;;1615465;86;22885;-77
2022/11/28 06:32:36;;;;;;;1.80;1.60;;;;;;;;;;1617955;86;21648;-76
2022/11/28 06:35:03;;;;;;;2.90;1.30;;;;;;;;;;1617381;86;21109;-76
2022/11/28 06:37:29;;;;;;;1.90;1.63;;;;;;;;;;1613935;86;21097;-75
2022/11/28 06:39:55;;;;;;;1.93;1.83;;;;;;;;;;1622570;86;21784;-75
2022/11/28 06:42:21;;;;;;;1.60;1.50;;;;;;;;;;1619460;86;22261;-75
2022/11/28 06:44:47;;;;;;;2.87;1.43;;;;;;;;;;1617747;86;21110;-75
2022/11/28 06:47:14;;;;;;;2.37;1.90;;;;;;;;;;1614950;86;21595;-76
2022/11/28 06:49:40;;;;;;;2.07;1.60;;;;;;;;;;1623127;86;21193;-75
2022/11/28 06:52:06;;;;;;;3.03;1.73;;;;;;;;;;1628488;86;21672;-76
2022/11/28 06:54:32;;;;;;;2.70;1.87;;;;;;;;;;1616819;86;21991;-76
2022/11/28 06:56:58;;;;;;;2.20;1.60;;;;;;;;;;1614427;88;21077;-75
2022/11/28 06:59:24;;;;;;;2.93;2.30;;;;;;;;;;1616978;86;21088;-75
2022/11/28 07:01:50;;;;;;;3.17;2.20;;;;;;;;;;1615811;86;21086;-76
2022/11/28 07:04:16;;;;;;;5.27;3.37;;;;;;;;;;1620467;86;21121;-76
2022/11/28 07:06:43;;;;;;;2.83;2.43;;;;;;;;;;1615790;86;22619;-75
2022/11/28 07:09:10;;;;;;;7.27;4.20;;;;;;;;;;1617069;86;21096;-75
2022/11/28 07:11:36;;;;;;;4.57;3.13;;;;;;;;;;1620813;86;21120;-76
2022/11/28 07:14:02;;;;;;;4.00;2.83;;;;;;;;;;1593338;86;21124;-76
2022/11/28 07:16:30;;;;;;;4.03;2.83;;;;;;;;;;1592456;88;21182;-76
2022/11/28 07:18:56;;;;;;;3.80;3.13;;;;;;;;;;1616622;87;21857;-76
2022/11/28 07:21:22;;;;;;;4.33;3.20;;;;;;;;;;1618665;86;21843;-76
2022/11/28 07:23:49;;;;;;;3.80;3.33;;;;;;;;;;1592228;88;21078;-78
2022/11/28 07:26:16;;;;;;;4.90;3.73;;;;;;;;;;1591455;89;21060;-79
2022/11/28 07:28:42;;;;;;;5.50;3.80;;;;;;;;;;1565136;88;21082;-79
2022/11/28 07:31:13;;;;;;;4.10;3.77;;;;;;;;;;1590743;88;22251;-78
2022/11/28 07:33:40;;;;;;;7.23;5.03;;;;;;;;;;1616862;86;21464;-79
2022/11/28 07:36:19;;;;;;;9.33;5.87;;;;;;;;;;1620441;86;21086;-79
2022/11/28 07:38:49;;;;;;;7.37;5.37;;;;;;;;;;1585871;88;21100;-79
2022/11/28 07:41:17;;;;;;;6.30;5.63;;;;;;;;;;1616219;86;21085;-79
2022/11/28 07:43:44;;;;;;;5.67;5.17;;;;;;;;;;1622167;86;22445;-78
2022/11/28 07:46:11;;;;;;;7.53;5.40;;;;;;;;;;1622968;86;21528;-79
2022/11/28 07:48:38;;;;;;;12.63;6.43;;;;;;;;;;1623414;86;21617;-78
2022/11/28 07:51:10;;;;;;;8.47;7.27;;;;;;;;;;1619644;86;21144;-79
2022/11/28 07:53:36;;;;;;;9.60;6.53;;;;;;;;;;1609162;87;21053;-79
2022/11/28 07:56:03;;;;;;;8.87;5.83;;;;;;;;;;1604177;87;21916;-79
2022/11/28 07:58:29;;;;;;;7.43;6.73;;;;;;;;;;1606289;87;21148;-78
2022/11/28 08:00:55;;;;;;;9.10;6.50;;;;;;;;;;1601979;87;21124;-79
2022/11/28 08:03:22;;;;;;;9.43;7.20;;;;;;;;;;1603435;87;21705;-79
2022/11/28 08:05:49;;;;;;;10.73;6.17;;;;;;;;;;1619526;86;21093;-79
2022/11/28 08:08:17;;;;;;;7.83;5.90;;;;;;;;;;1615949;86;22562;-79
2022/11/28 08:10:43;;;;;;;6.80;6.10;;;;;;;;;;1615796;86;21092;-79
2022/11/28 08:13:09;;;;;;;7.43;6.43;;;;;;;;;;1592884;88;21105;-79
2022/11/28 08:15:38;;;;;;;8.20;6.40;;;;;;;;;;1600191;86;21077;-79
2022/11/28 08:18:05;;;;;;;7.80;6.27;;;;;;;;;;1635232;85;21608;-79
2022/11/28 08:20:31;;;;;;;9.90;7.10;;;;;;;;;;1635875;85;21182;-78
2022/11/28 08:22:58;;;;;;;7.50;5.87;;;;;;;;;;1632938;85;21073;-78
2022/11/28 08:25:24;;;;;;;10.77;8.10;;;;;;;;;;1637017;85;21163;-79
2022/11/28 08:27:50;;;;;;;8.83;7.60;;;;;;;;;;1638360;85;21447;-79
2022/11/28 08:30:16;;;;;;;12.90;8.27;;;;;;;;;;1604988;87;21113;-79
2022/11/28 08:32:42;;;;;;;8.63;7.00;;;;;;;;;;1640503;85;21827;-79
2022/11/28 08:35:09;;;;;;;8.40;6.87;;;;;;;;;;1635890;85;21129;-79
2022/11/28 08:37:35;;;;;;;7.10;5.27;;;;;;;;;;1637955;85;21683;-79
2022/11/28 08:40:01;;;;;;;9.70;6.37;;;;;;;;;;1637083;85;21071;-79
2022/11/28 08:42:28;;;;;;;9.23;5.77;;;;;;;;;;1638054;85;21062;-79
2022/11/28 08:44:54;;;;;;;8.20;5.53;;;;;;;;;;1630721;85;21835;-79
2022/11/28 08:47:21;;;;;;;5.77;4.07;;;;;;;;;;1635475;85;21081;-79
2022/11/28 08:49:47;;;;;;;4.50;3.40;;;;;;;;;;1637354;85;21101;-79
2022/11/28 08:52:13;;;;;;;4.40;3.27;;;;;;;;;;1637431;85;21058;-78
2022/11/28 08:54:40;;;;;;;5.27;3.57;;;;;;;;;;1636107;85;21075;-78
2022/11/28 08:57:06;;;;;;;6.27;4.53;;;;;;;;;;1641021;85;21978;-79
2022/11/28 08:59:33;;;;;;;6.50;3.93;;;;;;;;;;1638841;85;21139;-79
2022/11/28 09:01:59;;;;;;;6.53;4.30;;;;;;;;;;1638018;85;21119;-78
2022/11/28 09:04:27;;;;;;;6.80;3.47;;;;;;;;;;1636774;85;21241;-78
2022/11/28 09:06:53;;;;;;;7.90;4.77;;;;;;;;;;1636740;85;21407;-79
2022/11/28 09:09:21;;;;;;;8.10;4.07;;;;;;;;;;1641318;85;23380;-79
2022/11/28 09:11:48;;;;;;;8.30;5.83;;;;;;;;;;1630920;85;21050;-78
2022/11/28 09:14:14;;;;;;;11.77;6.90;;;;;;;;;;1633886;84;21192;-79
2022/11/28 09:16:40;;;;;;;9.33;6.43;;;;;;;;;;1635435;85;21130;-79
2022/11/28 09:19:08;;;;;;;6.17;5.53;;;;;;;;;;1635200;85;21074;-78
2022/11/28 09:21:34;;;;;;;8.53;6.67;;;;;;;;;;1632093;85;21894;-78
2022/11/28 09:24:01;;;;;;;11.43;7.90;;;;;;;;;;1639866;85;21101;-78
2022/11/28 09:26:29;;;;;;;10.17;7.23;;;;;;;;;;1631722;85;21074;-80
2022/11/28 09:28:56;;;;;;;9.40;6.53;;;;;;;;;;1635127;85;22394;-79
2022/11/28 09:34:27;;;;;;;7.80;5.27;;;;;;;;;;1775283;78;23210;-52
2022/11/28 09:36:54;;;;;;;8.83;6.33;;;;;;;;;;1735491;80;22013;-52
2022/11/28 09:39:20;;;;;;;7.87;5.90;;;;;;;;;;1714054;81;21788;-52
2022/11/28 09:42:09;;;;;;;9.90;6.67;;;;;;;;;;1709536;81;21034;-53
2022/11/28 09:47:14;;;;;;;7.43;5.77;;;;;;;;;;1851204;75;21701;-51
2022/11/28 09:49:43;;;;;;;6.70;4.87;;;;;;;;;;1806536;77;21009;-50
2022/11/28 09:52:33;;;;;;;6.83;6.13;;;;;;;;;;1809089;77;21934;-51
2022/11/28 09:55:11;;;;;;;9.93;6.00;;;;;;;;;;1811648;77;21500;-52
2022/11/28 09:57:44;;;;;;;10.07;7.13;;;;;;;;;;1813983;77;21619;-52
2022/11/28 10:00:21;;;;;;;8.70;5.80;;;;;;;;;;1814955;77;21615;-52
2022/11/28 10:03:06;;;;;;;13.37;6.67;;;;;;;;;;1811512;77;21137;-52
2022/11/28 10:05:36;;;;;;;;;;;;;;;;;;1815614;77;22506;-52
2022/11/28 10:08:28;;;;;;;8.20;5.97;;;;;;;;;;1807674;77;20953;-53
2022/11/28 10:11:03;;;;;;;10.03;6.90;;;;;;;;;;1816071;77;21561;-52
2022/11/28 10:13:43;;;;;;;8.77;6.93;;;;;;;;;;1812857;77;21080;-53
2022/11/28 10:16:13;;;;;;;11.50;7.63;;;;;;;;;;1811481;77;21342;-53
2022/11/28 10:18:51;;;;;;;10.33;7.37;;;;;;;;;;1811826;77;21870;-52
2022/11/28 10:21:35;;;;;;;12.23;8.60;;;;;;;;;;1813733;77;21043;-53
2022/11/28 10:24:08;;;;;;;9.23;6.55;;;;;;;;;;1817418;77;21552;-52
2022/11/28 10:26:40;;;;;;;11.37;7.60;;;;;;;;;;1809573;77;21061;-52
2022/11/28 10:29:44;;;;;;;11.77;6.80;;;;;;;;;;1808105;77;21076;-53
2022/11/28 10:32:14;;;;;;;10.93;6.27;;;;;;;;;;1812418;77;21823;-52
2022/11/28 10:35:00;;;;;;;12.83;6.07;;;;;;;;;;1811062;77;21083;-52
2022/11/28 10:37:28;;;;;;;9.70;6.97;;;;;;;;;;1795086;77;21507;-52
2022/11/28 10:39:56;;;;;;;11.83;7.67;;;;;;;;;;1779676;78;21562;-53
2022/11/28 10:42:34;;;;;;;12.80;7.07;;;;;;;;;;1777762;78;21053;-52
2022/11/28 10:45:13;;;;;;;13.33;7.20;;;;;;;;;;1779881;78;23326;-52
2022/11/28 10:47:49;;;;;;;13.83;8.13;;;;;;;;;;1785519;78;21067;-53
2022/11/28 10:50:43;;;;;;;12.17;8.07;;;;;;;;;;1783679;78;21034;-52
2022/11/28 10:53:22;;;;;;;16.37;8.47;;;;;;;;;;1787032;78;21089;-53
2022/11/28 10:56:09;;;;;;;14.77;9.47;;;;;;;;;;1785344;78;21095;-52
2022/11/28 10:58:48;;;;;;;19.50;10.60;;;;;;;;;;1791066;78;21819;-53
2022/11/28 11:01:14;;;;;;;16.80;11.33;;;;;;;;;;1782506;78;21073;-53
2022/11/28 11:03:40;;;;;;;18.10;11.40;;;;;;;;;;1784640;78;21120;-53
2022/11/28 11:06:07;;;;;;;13.77;7.93;;;;;;;;;;1785986;78;21077;-53
2022/11/28 11:08:38;;;;;;;16.10;9.97;;;;;;;;;;1770726;78;22334;-53
2022/11/28 11:11:24;;;;;;;19.93;9.47;;;;;;;;;;1784185;78;21489;-52
2022/11/28 11:14:03;;;;;;;13.00;7.90;;;;;;;;;;1777228;78;21099;-53
2022/11/28 11:16:52;;;;;;;12.23;7.43;;;;;;;;;;1777766;78;21075;-53
2022/11/28 11:19:27;;;;;;;9.03;6.70;;;;;;;;;;1783303;78;21095;-52
2022/11/28 11:22:05;;;;;;;12.33;8.68;;;;;;;;;;1766775;78;21025;-53
2022/11/28 11:24:31;;;;;;;14.60;8.57;;;;;;;;;;1789100;78;21837;-52
2022/11/28 11:27:07;;;;;;;18.33;10.40;;;;;;;;;;1786348;78;21098;-53
2022/11/28 11:29:34;;;;;;;15.33;9.87;;;;;;;;;;1788885;78;21068;-53
2022/11/28 11:32:04;;;;;;;17.27;9.27;;;;;;;;;;1786858;78;21398;-53
2022/11/28 11:34:32;;;;;;;12.03;7.23;;;;;;;;;;1790420;78;21090;-53
2022/11/28 11:37:19;;;;;;;12.97;7.87;;;;;;;;;;1786603;78;21817;-53
2022/11/28 11:39:49;;;;;;;9.80;6.60;;;;;;;;;;1783690;78;21535;-53
2022/11/28 11:42:21;;;;;;;11.13;7.10;;;;;;;;;;1765125;78;22301;-53
2022/11/28 11:44:47;;;;;;;12.23;7.07;;;;;;;;;;1785616;78;21045;-55
2022/11/28 11:47:14;;;;;;;11.03;6.60;;;;;;;;;;1782205;78;21092;-53
2022/11/28 11:49:47;;;;;;;9.83;6.20;;;;;;;;;;1785422;78;22445;-52
2022/11/28 11:52:21;;;;;;;7.03;5.10;;;;;;;;;;1780656;78;21068;-52
2022/11/28 11:54:58;;;;;;;10.95;6.72;;;;;;;;;;1783330;78;21108;-52
2022/11/28 11:57:40;;;;;;;9.50;5.63;;;;;;;;;;1785466;78;21063;-52
2022/11/28 12:00:10;;;;;;;8.40;5.80;;;;;;;;;;1744435;78;21037;-52
2022/11/28 12:02:50;;;;;;;5.93;5.33;;;;;;;;;;1785305;78;21748;-53
2022/11/28 12:05:30;;;;;;;8.40;4.10;;;;;;;;;;1782995;78;21044;-53
2022/11/28 12:08:17;;;;;;;5.43;4.93;;;;;;;;;;1786808;78;21457;-52
2022/11/28 12:11:23;;;;;;;6.90;3.80;;;;;;;;;;1767435;78;21088;-52
2022/11/28 12:13:49;;;;;;;5.07;3.63;;;;;;;;;;1784209;78;21087;-52
2022/11/28 12:16:31;;;;;;;4.67;3.40;;;;;;;;;;1783569;78;21814;-52
2022/11/28 12:19:05;;;;;;;7.03;3.43;;;;;;;;;;1786503;78;21091;-52
2022/11/28 12:21:41;;;;;;;2.90;2.58;;;;;;;;;;1782754;78;21107;-52
2022/11/28 12:24:13;;;;;;;5.43;4.17;;;;;;;;;;1790498;78;21541;-54
2022/11/28 12:27:17;;;;;;;4.40;3.97;;;;;;;;;;1767798;78;21075;-51
2022/11/28 12:29:59;;;;;;;9.33;5.03;;;;;;;;;;1784280;78;22641;-52
2022/11/28 12:32:29;;;;;;;7.30;5.87;;;;;;;;;;1727042;78;21082;-52
2022/11/28 12:35:09;;;;;;;5.07;4.53;;;;;;;;;;1787441;78;21123;-52
2022/11/28 12:37:45;;;;;;;10.50;7.30;;;;;;;;;;1784807;78;21060;-52
2022/11/28 12:42:36;;;;;;;8.90;5.97;;;;;;;;;;1790464;78;23424;-51
2022/11/28 12:45:19;;;;;;;7.80;6.30;;;;;;;;;;1763442;79;21779;-52
2022/11/28 12:48:06;;;;;;;5.60;5.00;;;;;;;;;;1771718;79;22579;-51
2022/11/28 12:50:39;;;;;;;5.87;5.03;;;;;;;;;;1771891;79;21493;-52
2022/11/28 12:53:26;;;;;;;6.07;4.83;;;;;;;;;;1772397;79;21029;-53
2022/11/28 12:56:22;;;;;;;8.60;4.80;;;;;;;;;;1776211;79;21629;-53
2022/11/28 12:59:04;;;;;;;5.03;4.50;;;;;;;;;;1769822;79;21108;-52
2022/11/28 13:01:43;;;;;;;6.37;5.17;;;;;;;;;;1768515;79;21989;-51
2022/11/28 13:04:19;;;;;;;5.53;4.97;;;;;;;;;;1770876;79;21053;-51
2022/11/28 13:06:58;;;;;;;7.60;6.30;;;;;;;;;;1769569;79;21053;-52
2022/11/28 13:09:44;;;;;;;8.23;5.97;;;;;;;;;;1772471;79;21085;-53
2022/11/28 13:12:23;;;;;;;8.80;6.07;;;;;;;;;;1767345;79;22253;-52
2022/11/28 13:15:09;;;;;;;8.93;6.77;;;;;;;;;;1772134;78;21895;-52
2022/11/28 13:17:54;;;;;;;10.70;7.00;;;;;;;;;;1757173;79;22220;-52
2022/11/28 13:20:27;;;;;;;9.10;7.80;;;;;;;;;;1765682;79;21096;-52
2022/11/28 13:23:00;;;;;;;9.67;8.00;;;;;;;;;;1768186;79;21412;-52
2022/11/28 13:25:51;;;;;;;14.23;10.43;;;;;;;;;;1774506;79;21179;-52
2022/11/28 13:28:34;;;;;;;14.13;10.27;;;;;;;;;;1772249;79;21837;-52
2022/11/28 13:31:08;;;;;;;11.50;8.73;;;;;;;;;;1769163;79;21068;-53
2022/11/28 13:33:52;;;;;;;8.60;7.20;;;;;;;;;;1726510;79;21124;-52
2022/11/28 13:36:22;;;;;;;10.73;7.53;;;;;;;;;;1774742;79;21588;-53
2022/11/28 13:52:43;;;;;;;11.77;9.53;;;;;;;;;;1864685;74;22687;-49
2022/11/28 13:55:45;;;;;;;11.73;9.17;;;;;;;;;;1831959;76;21784;-50
2022/11/28 13:58:24;;;;;;;13.60;9.40;;;;;;;;;;1831006;76;21844;-49
2022/11/28 14:01:10;;;;;;;15.97;10.83;;;;;;;;;;1831765;76;21326;-53
2022/11/28 14:04:01;;;;;;;16.47;10.43;;;;;;;;;;1828134;76;21063;-53
2022/11/28 14:06:29;;;;;;;14.07;9.40;;;;;;;;;;1827204;76;21047;-51
2022/11/28 14:09:06;;;;;;;20.20;12.87;;;;;;;;;;1832616;77;21016;-52
2022/11/28 14:11:50;;;;;;;17.90;10.13;;;;;;;;;;1826247;77;21885;-53
2022/11/28 14:14:42;;;;;;;21.40;12.47;;;;;;;;;;1826518;77;21037;-50
2022/11/28 14:17:27;;;;;;;20.93;12.40;;;;;;;;;;1830618;77;20979;-48
2022/11/28 14:20:20;;;;;;;29.40;15.43;;;;;;;;;;1836236;77;20990;-49
2022/11/28 14:22:57;;;;;;;23.73;12.33;;;;;;;;;;1825334;77;21652;-51
2022/11/28 14:25:27;;;;;;;18.70;11.10;;;;;;;;;;1832583;77;23361;-50
2022/11/28 14:27:56;;;;;;;12.53;8.30;;;;;;;;;;1828485;77;21040;-48
2022/11/28 14:30:32;;;;;;;15.37;9.53;;;;;;;;;;1826008;77;21032;-50
2022/11/28 14:33:13;;;;;;;13.80;8.37;;;;;;;;;;1832188;77;21052;-50
2022/11/28 14:35:53;;;;;;;14.80;8.43;;;;;;;;;;1825959;77;21025;-49
2022/11/28 14:38:35;;;;;;;15.03;8.87;;;;;;;;;;1823670;77;21818;-49
2022/11/28 14:41:04;;;;;;;12.13;8.37;;;;;;;;;;1820981;76;21009;-50
2022/11/28 14:43:35;;;;;;;13.93;8.73;;;;;;;;;;1812848;77;21030;-51
2022/11/28 14:46:18;;;;;;;10.67;7.70;;;;;;;;;;1812361;77;21040;-47
2022/11/28 14:49:00;;;;;;;19.37;9.03;;;;;;;;;;1811432;77;21425;-47
2022/11/28 14:51:49;;;;;;;15.20;9.80;;;;;;;;;;1787102;77;21845;-50
2022/11/28 14:54:28;;;;;;;16.77;11.03;;;;;;;;;;1806792;77;21077;-46
2022/11/28 14:56:55;;;;;;;11.50;7.87;;;;;;;;;;1809293;77;21068;-50
2022/11/28 14:59:25;;;;;;;8.03;6.83;;;;;;;;;;1812720;77;21029;-48
2022/11/28 15:02:00;;;;;;;5.00;4.50;;;;;;;;;;1816537;77;21037;-48
2022/11/28 15:04:32;;;;;;;6.60;5.70;;;;;;;;;;1807014;77;21928;-49
2022/11/28 15:06:59;;;;;;;11.00;6.23;;;;;;;;;;1809255;77;21058;-49
2022/11/28 15:09:29;;;;;;;12.20;7.80;;;;;;;;;;1811542;77;21062;-47
2022/11/28 15:12:17;;;;;;;10.30;7.23;;;;;;;;;;1815418;77;21112;-48
2022/11/28 15:14:44;;;;;;;11.90;8.50;;;;;;;;;;1810944;77;21044;-47
2022/11/28 15:17:11;;;;;;;9.77;8.20;;;;;;;;;;1810685;77;21888;-47
2022/11/28 15:19:45;;;;;;;14.37;9.70;;;;;;;;;;1809849;77;21546;-49
2022/11/28 15:22:38;;;;;;;12.63;8.70;;;;;;;;;;1804755;77;21115;-48
2022/11/28 15:25:20;;;;;;;9.37;7.27;;;;;;;;;;1807871;77;21777;-48
2022/11/28 15:27:46;;;;;;;11.20;7.40;;;;;;;;;;1810840;77;21086;-48
2022/11/28 15:30:22;;;;;;;8.00;5.97;;;;;;;;;;1814207;77;21854;-49
2022/11/28 15:32:48;;;;;;;13.70;9.50;;;;;;;;;;1802580;77;20993;-52
2022/11/28 15:35:17;;;;;;;12.30;10.40;;;;;;;;;;1801574;77;21113;-51
2022/11/28 15:37:52;;;;;;;12.47;11.13;;;;;;;;;;1809089;77;21096;-50
2022/11/28 15:40:33;;;;;;;10.77;9.07;;;;;;;;;;1800346;77;21034;-50